Time;durP1;ratioP1;P1;durP2;ratioP2;P2;SDS_P1;SDS_P2;PMS_P1;PMS_P2;Temp;Humidity;BMP_temperature;BMP_pressure;BME280_temperature;BME280_humidity;BME280_pressure;Samples;Min_cycle;Max_cycle;Signal;HPM_P1;HPM_P2
2021/03/01 00:00:01;;;;;;;20.33;16.65;;;;;;;;;;5013543;28;20895;-86
2021/03/01 00:02:27;;;;;;;21.75;16.23;;;;;;;;;;5013608;28;20383;-85
2021/03/01 00:04:53;;;;;;;21.10;16.40;;;;;;;;;;5013321;28;20378;-86
2021/03/01 00:07:19;;;;;;;21.50;16.17;;;;;;;;;;5012299;28;20501;-85
2021/03/01 00:09:45;;;;;;;22.88;16.90;;;;;;;;;;5013471;28;20445;-86
2021/03/01 00:12:11;;;;;;;23.17;15.88;;;;;;;;;;5013000;28;20413;-83
2021/03/01 00:14:37;;;;;;;23.80;16.70;;;;;;;;;;5011947;28;20411;-87
2021/03/01 00:17:03;;;;;;;19.70;15.70;;;;;;;;;;5011755;28;20421;-86
2021/03/01 00:19:29;;;;;;;22.40;16.58;;;;;;;;;;5011293;28;20379;-86
2021/03/01 00:21:55;;;;;;;22.80;16.08;;;;;;;;;;5013119;28;20881;-87
2021/03/01 00:24:21;;;;;;;22.08;16.08;;;;;;;;;;5013115;28;20817;-89
2021/03/01 00:26:47;;;;;;;23.63;15.98;;;;;;;;;;5012817;28;20387;-83
2021/03/01 00:29:13;;;;;;;21.97;15.57;;;;;;;;;;5011566;28;20482;-83
2021/03/01 00:31:39;;;;;;;22.92;16.00;;;;;;;;;;5011932;28;20486;-85
2021/03/01 00:34:05;;;;;;;23.75;16.60;;;;;;;;;;5012599;28;20750;-83
2021/03/01 00:36:31;;;;;;;24.65;18.10;;;;;;;;;;5011929;28;20375;-86
2021/03/01 00:38:59;;;;;;;24.48;18.30;;;;;;;;;;5012909;28;20395;-85
2021/03/01 00:41:25;;;;;;;22.38;17.10;;;;;;;;;;5014761;28;20387;-87
2021/03/01 00:43:50;;;;;;;23.92;17.67;;;;;;;;;;5011714;28;20393;-87
2021/03/01 00:46:16;;;;;;;28.30;20.23;;;;;;;;;;5012718;28;20386;-88
2021/03/01 00:48:42;;;;;;;23.02;18.70;;;;;;;;;;5011351;28;20457;-83
2021/03/01 00:51:08;;;;;;;24.17;18.20;;;;;;;;;;5011355;28;20376;-87
2021/03/01 00:53:34;;;;;;;22.27;17.60;;;;;;;;;;5012472;28;20402;-86
2021/03/01 00:56:00;;;;;;;25.35;18.92;;;;;;;;;;5011272;28;20384;-83
2021/03/01 00:58:26;;;;;;;30.27;20.13;;;;;;;;;;5012725;28;20383;-87
2021/03/01 01:00:52;;;;;;;27.23;19.77;;;;;;;;;;5011301;28;20381;-89
2021/03/01 01:03:19;;;;;;;23.35;19.00;;;;;;;;;;5011448;28;20902;-87
2021/03/01 01:05:45;;;;;;;27.40;20.23;;;;;;;;;;5011207;28;20391;-85
2021/03/01 01:08:11;;;;;;;23.48;18.63;;;;;;;;;;5012471;28;20379;-86
2021/03/01 01:10:37;;;;;;;25.23;19.67;;;;;;;;;;5010763;28;20413;-89
2021/03/01 01:13:05;;;;;;;24.55;18.75;;;;;;;;;;5010299;28;21469;-85
2021/03/01 01:15:31;;;;;;;21.83;17.90;;;;;;;;;;5011951;28;20379;-84
2021/03/01 01:17:57;;;;;;;24.08;18.95;;;;;;;;;;5010892;28;20455;-83
2021/03/01 01:20:23;;;;;;;25.63;19.25;;;;;;;;;;5011086;28;20471;-90
2021/03/01 01:22:49;;;;;;;23.40;18.48;;;;;;;;;;5010659;28;20379;-88
2021/03/01 01:25:16;;;;;;;22.13;17.50;;;;;;;;;;5011688;28;20975;-87
2021/03/01 01:27:42;;;;;;;23.90;18.38;;;;;;;;;;5010537;28;20376;-84
2021/03/01 01:30:09;;;;;;;25.50;18.63;;;;;;;;;;5011775;28;20407;-89
2021/03/01 01:32:36;;;;;;;27.80;19.05;;;;;;;;;;5012149;28;20414;-89
2021/03/01 01:35:03;;;;;;;27.90;19.35;;;;;;;;;;5010399;28;20375;-85
2021/03/01 01:37:29;;;;;;;30.67;20.30;;;;;;;;;;5010664;28;20734;-86
2021/03/01 01:39:55;;;;;;;30.98;21.17;;;;;;;;;;5010571;28;20391;-86
2021/03/01 01:42:21;;;;;;;29.75;20.70;;;;;;;;;;5010599;28;20765;-86
2021/03/01 01:44:47;;;;;;;32.33;20.52;;;;;;;;;;5010451;28;20391;-89
2021/03/01 01:47:13;;;;;;;27.30;19.33;;;;;;;;;;5011311;28;20375;-87
2021/03/01 01:49:39;;;;;;;27.13;20.45;;;;;;;;;;5011432;28;20791;-85
2021/03/01 01:52:05;;;;;;;25.95;18.92;;;;;;;;;;5011456;28;20386;-84
2021/03/01 01:54:31;;;;;;;28.77;19.98;;;;;;;;;;5010043;28;20873;-83
2021/03/01 01:56:57;;;;;;;29.02;20.10;;;;;;;;;;5010448;28;20391;-87
2021/03/01 01:59:23;;;;;;;28.02;20.10;;;;;;;;;;5010667;28;20390;-89
2021/03/01 02:01:49;;;;;;;28.17;19.83;;;;;;;;;;5010213;28;20395;-88
2021/03/01 02:04:35;;;;;;;27.92;20.17;;;;;;;;;;5011264;28;20454;-82
2021/03/01 02:07:23;;;;;;;29.70;20.33;;;;;;;;;;5010215;28;20391;-86
2021/03/01 02:10:04;;;;;;;33.17;22.02;;;;;;;;;;5009825;28;20414;-85
2021/03/01 02:12:30;;;;;;;29.75;20.52;;;;;;;;;;5010044;28;20415;-89
2021/03/01 02:14:59;;;;;;;28.50;20.50;;;;;;;;;;5011331;28;20427;-86
2021/03/01 02:17:25;;;;;;;24.48;17.95;;;;;;;;;;5009972;28;20383;-86
2021/03/01 02:19:51;;;;;;;27.38;19.33;;;;;;;;;;5009758;28;20878;-87
2021/03/01 02:22:18;;;;;;;29.33;20.67;;;;;;;;;;5009683;28;20391;-83
2021/03/01 02:24:45;;;;;;;31.98;22.02;;;;;;;;;;5010958;28;20510;-85
2021/03/01 02:27:15;;;;;;;28.50;20.73;;;;;;;;;;5011075;28;20884;-85
2021/03/01 02:29:42;;;;;;;30.75;20.77;;;;;;;;;;5010099;28;20964;-87
2021/03/01 02:32:09;;;;;;;25.75;19.08;;;;;;;;;;5010816;28;20375;-85
2021/03/01 02:34:37;;;;;;;30.75;20.52;;;;;;;;;;5009676;28;20425;-86
2021/03/01 02:37:12;;;;;;;32.55;21.88;;;;;;;;;;5009933;28;20893;-88
2021/03/01 02:39:40;;;;;;;31.02;21.85;;;;;;;;;;5011270;28;20379;-87
2021/03/01 02:42:08;;;;;;;34.10;22.48;;;;;;;;;;5012244;28;20379;-88
2021/03/01 02:44:34;;;;;;;32.28;23.02;;;;;;;;;;5013455;28;20469;-84
2021/03/01 02:47:00;;;;;;;29.60;21.33;;;;;;;;;;5015035;28;20387;-86
2021/03/01 02:49:27;;;;;;;28.40;21.23;;;;;;;;;;5013725;28;20403;-85
2021/03/01 02:51:53;;;;;;;30.90;21.13;;;;;;;;;;5013933;28;20383;-83
2021/03/01 02:54:20;;;;;;;31.80;21.17;;;;;;;;;;5014871;28;20375;-87
2021/03/01 02:56:47;;;;;;;32.13;22.05;;;;;;;;;;5014689;28;20379;-84
2021/03/01 02:59:13;;;;;;;31.73;22.80;;;;;;;;;;5019761;28;20899;-87
2021/03/01 03:01:39;;;;;;;28.30;20.50;;;;;;;;;;5023349;28;20451;-82
2021/03/01 03:04:05;;;;;;;31.15;22.40;;;;;;;;;;5024190;28;20406;-85
2021/03/01 03:06:33;;;;;;;33.45;22.38;;;;;;;;;;5023492;28;20386;-87
2021/03/01 03:08:59;;;;;;;28.35;20.40;;;;;;;;;;5015504;28;20406;-85
2021/03/01 03:11:27;;;;;;;26.98;19.65;;;;;;;;;;5016488;28;20390;-86
2021/03/01 03:13:54;;;;;;;27.67;20.33;;;;;;;;;;5014123;28;20379;-88
2021/03/01 03:16:22;;;;;;;32.92;22.15;;;;;;;;;;5013295;28;20379;-87
2021/03/01 03:18:48;;;;;;;28.20;20.60;;;;;;;;;;5013126;28;20386;-85
2021/03/01 03:21:14;;;;;;;29.17;21.58;;;;;;;;;;5014431;28;20379;-87
2021/03/01 03:23:40;;;;;;;29.77;21.53;;;;;;;;;;5017038;28;20379;-87
2021/03/01 03:26:07;;;;;;;27.75;20.58;;;;;;;;;;5015475;28;20449;-84
2021/03/01 03:28:33;;;;;;;36.60;23.95;;;;;;;;;;5015558;28;20372;-86
2021/03/01 03:30:59;;;;;;;31.20;22.53;;;;;;;;;;5014788;28;20414;-84
2021/03/01 03:33:25;;;;;;;37.97;25.13;;;;;;;;;;5014026;28;20494;-85
2021/03/01 03:35:51;;;;;;;34.20;23.50;;;;;;;;;;5013905;28;20379;-85
2021/03/01 03:38:25;;;;;;;33.17;22.80;;;;;;;;;;5013568;28;20390;-86
2021/03/01 03:40:52;;;;;;;31.05;22.98;;;;;;;;;;5012480;28;20375;-84
2021/03/01 03:43:18;;;;;;;32.97;23.30;;;;;;;;;;5013456;28;20382;-85
2021/03/01 03:45:45;;;;;;;36.33;24.00;;;;;;;;;;5012562;28;20715;-86
2021/03/01 03:48:12;;;;;;;32.33;23.43;;;;;;;;;;5012298;28;20754;-88
2021/03/01 03:50:38;;;;;;;29.60;21.98;;;;;;;;;;5012543;28;20403;-85
2021/03/01 03:53:07;;;;;;;36.72;25.30;;;;;;;;;;5011080;28;20399;-85
2021/03/01 03:55:35;;;;;;;37.30;24.73;;;;;;;;;;5013365;28;20378;-85
2021/03/01 03:58:02;;;;;;;34.58;24.15;;;;;;;;;;5012317;28;20852;-86
2021/03/01 04:00:30;;;;;;;32.78;23.65;;;;;;;;;;5013420;28;20465;-87
2021/03/01 04:02:57;;;;;;;33.42;22.25;;;;;;;;;;5013267;28;20714;-86
2021/03/01 04:05:24;;;;;;;33.17;23.27;;;;;;;;;;5013007;28;20386;-87
2021/03/01 04:07:51;;;;;;;34.50;23.95;;;;;;;;;;5012328;28;20397;-87
2021/03/01 04:10:17;;;;;;;36.47;24.65;;;;;;;;;;5012396;28;20406;-86
2021/03/01 04:12:45;;;;;;;35.88;24.25;;;;;;;;;;5013081;28;20414;-86
2021/03/01 04:15:14;;;;;;;35.97;24.73;;;;;;;;;;5013223;28;20380;-85
2021/03/01 04:17:41;;;;;;;33.35;23.50;;;;;;;;;;5012829;28;20379;-82
2021/03/01 04:20:08;;;;;;;34.13;23.52;;;;;;;;;;5012760;28;20474;-88
2021/03/01 04:22:35;;;;;;;31.95;24.08;;;;;;;;;;5012685;28;20375;-85
2021/03/01 04:25:01;;;;;;;33.47;24.08;;;;;;;;;;5012798;28;20422;-87
2021/03/01 04:27:28;;;;;;;36.73;25.90;;;;;;;;;;5011592;28;20391;-85
2021/03/01 04:29:55;;;;;;;36.28;25.45;;;;;;;;;;5011347;28;20427;-84
2021/03/01 04:32:21;;;;;;;35.20;24.58;;;;;;;;;;5011464;28;20388;-85
2021/03/01 04:34:48;;;;;;;35.22;24.73;;;;;;;;;;5011634;28;20394;-85
2021/03/01 04:37:14;;;;;;;32.58;23.58;;;;;;;;;;5011192;28;20385;-82
2021/03/01 04:39:40;;;;;;;34.53;24.77;;;;;;;;;;5011519;28;20462;-87
2021/03/01 04:42:06;;;;;;;38.83;27.02;;;;;;;;;;5012027;28;20935;-84
2021/03/01 04:44:33;;;;;;;35.57;25.03;;;;;;;;;;5020952;28;20867;-83
2021/03/01 04:46:59;;;;;;;34.72;26.10;;;;;;;;;;5031023;28;20930;-85
2021/03/01 04:49:26;;;;;;;34.28;24.60;;;;;;;;;;5031011;28;20402;-85
2021/03/01 04:51:52;;;;;;;36.70;25.52;;;;;;;;;;5032176;28;20373;-82
2021/03/01 04:54:19;;;;;;;41.57;27.60;;;;;;;;;;5031970;28;20419;-86
2021/03/01 04:56:46;;;;;;;37.28;25.85;;;;;;;;;;5030677;28;20388;-83
2021/03/01 04:59:13;;;;;;;36.95;25.55;;;;;;;;;;5031954;28;20373;-84
2021/03/01 05:01:40;;;;;;;37.50;26.45;;;;;;;;;;5030733;28;20392;-82
2021/03/01 05:04:06;;;;;;;37.63;25.90;;;;;;;;;;5031405;28;20456;-82
2021/03/01 05:06:32;;;;;;;39.95;27.90;;;;;;;;;;5031813;28;20377;-83
2021/03/01 05:09:04;;;;;;;43.53;29.17;;;;;;;;;;5031629;28;20443;-86
2021/03/01 05:11:37;;;;;;;36.22;25.73;;;;;;;;;;5030602;28;20398;-85
2021/03/01 05:14:04;;;;;;;41.07;28.20;;;;;;;;;;5030669;28;20369;-84
2021/03/01 05:16:30;;;;;;;34.80;24.88;;;;;;;;;;5031398;28;20890;-86
2021/03/01 05:18:56;;;;;;;35.25;24.92;;;;;;;;;;5030130;28;20370;-85
2021/03/01 05:21:23;;;;;;;32.67;24.05;;;;;;;;;;5030240;28;20411;-85
2021/03/01 05:23:49;;;;;;;36.78;27.20;;;;;;;;;;5030225;28;20393;-87
2021/03/01 05:26:16;;;;;;;39.88;28.13;;;;;;;;;;5031399;28;20391;-82
2021/03/01 05:34:49;;;;;;;42.22;28.65;;;;;;;;;;5022312;28;20413;-86
2021/03/01 05:37:15;;;;;;;34.43;26.47;;;;;;;;;;5010427;28;20893;-81
2021/03/01 05:39:41;;;;;;;35.60;25.90;;;;;;;;;;5013886;28;20406;-85
2021/03/01 05:42:07;;;;;;;39.00;28.25;;;;;;;;;;5021886;28;20441;-85
2021/03/01 05:44:33;;;;;;;42.13;27.92;;;;;;;;;;5016538;28;20389;-84
2021/03/01 05:47:00;;;;;;;41.63;28.50;;;;;;;;;;5021350;28;20431;-85
2021/03/01 05:49:32;;;;;;;41.37;28.83;;;;;;;;;;5014737;28;20407;-85
2021/03/01 05:51:58;;;;;;;40.42;28.10;;;;;;;;;;5012945;28;20394;-83
2021/03/01 05:54:28;;;;;;;41.70;29.10;;;;;;;;;;5022020;28;20524;-88
2021/03/01 05:56:54;;;;;;;40.65;28.42;;;;;;;;;;5010964;28;22767;-84
2021/03/01 05:59:20;;;;;;;40.78;29.40;;;;;;;;;;5016107;28;20390;-82
2021/03/01 06:01:47;;;;;;;40.25;28.48;;;;;;;;;;5012776;28;20738;-88
2021/03/01 06:04:13;;;;;;;44.72;29.77;;;;;;;;;;5022946;28;20402;-84
2021/03/01 06:06:39;;;;;;;43.45;29.52;;;;;;;;;;5020407;28;20399;-84
2021/03/01 06:09:06;;;;;;;45.07;30.80;;;;;;;;;;5021793;28;20409;-88
2021/03/01 06:11:34;;;;;;;44.58;29.58;;;;;;;;;;5027524;28;20401;-87
2021/03/01 06:14:04;;;;;;;39.37;28.10;;;;;;;;;;5024106;28;20900;-88
2021/03/01 06:16:30;;;;;;;41.10;27.03;;;;;;;;;;5011183;28;20887;-85
2021/03/01 06:18:56;;;;;;;45.25;29.77;;;;;;;;;;5012580;28;20392;-86
2021/03/01 06:21:22;;;;;;;39.00;27.85;;;;;;;;;;5011629;28;20402;-82
2021/03/01 06:23:49;;;;;;;42.28;28.40;;;;;;;;;;5006461;28;20391;-82
2021/03/01 06:26:22;;;;;;;42.03;28.20;;;;;;;;;;5007889;28;20446;-82
2021/03/01 06:28:49;;;;;;;40.65;28.08;;;;;;;;;;5008124;28;20375;-83
2021/03/01 06:31:34;;;;;;;40.92;27.75;;;;;;;;;;5007953;28;20390;-82
2021/03/01 06:34:36;;;;;;;40.33;27.63;;;;;;;;;;5006923;28;20397;-82
2021/03/01 06:37:02;;;;;;;38.08;26.92;;;;;;;;;;4987766;28;20389;-82
2021/03/01 06:39:29;;;;;;;40.15;28.20;;;;;;;;;;5005766;28;20490;-81
2021/03/01 06:41:55;;;;;;;40.05;27.48;;;;;;;;;;5010153;28;20808;-82
2021/03/01 06:44:21;;;;;;;40.90;26.92;;;;;;;;;;5008760;28;20533;-82
2021/03/01 06:46:52;;;;;;;38.03;27.20;;;;;;;;;;5010159;28;20445;-83
2021/03/01 06:49:18;;;;;;;38.40;26.90;;;;;;;;;;5009944;28;20399;-82
2021/03/01 06:51:45;;;;;;;35.90;25.13;;;;;;;;;;5010205;28;20533;-84
2021/03/01 06:54:11;;;;;;;39.53;27.60;;;;;;;;;;5010126;28;20378;-84
2021/03/01 06:56:37;;;;;;;37.45;27.08;;;;;;;;;;5009988;28;20745;-83
2021/03/01 06:59:10;;;;;;;39.88;27.65;;;;;;;;;;5008759;28;20383;-83
2021/03/01 07:01:43;;;;;;;43.03;27.20;;;;;;;;;;5010386;28;20506;-84
2021/03/01 07:04:09;;;;;;;39.00;27.77;;;;;;;;;;5008821;28;20839;-84
2021/03/01 07:06:35;;;;;;;39.58;28.13;;;;;;;;;;5008982;28;20734;-85
2021/03/01 07:09:01;;;;;;;32.63;25.05;;;;;;;;;;5010221;28;20918;-85
2021/03/01 07:11:32;;;;;;;37.90;26.73;;;;;;;;;;5011114;28;20891;-83
2021/03/01 07:13:59;;;;;;;34.78;25.70;;;;;;;;;;5036602;28;20910;-84
2021/03/01 07:16:26;;;;;;;35.20;25.27;;;;;;;;;;5029329;28;20424;-84
2021/03/01 07:18:52;;;;;;;33.15;24.55;;;;;;;;;;5014525;28;20375;-83
2021/03/01 07:21:19;;;;;;;32.42;23.98;;;;;;;;;;5008512;28;20384;-85
2021/03/01 07:23:46;;;;;;;36.72;26.05;;;;;;;;;;5009763;28;20382;-83
2021/03/01 07:26:13;;;;;;;34.87;25.57;;;;;;;;;;5008289;28;20395;-84
2021/03/01 07:28:44;;;;;;;33.63;26.33;;;;;;;;;;5012815;28;20382;-83
2021/03/01 07:31:11;;;;;;;36.90;26.17;;;;;;;;;;5026809;28;21009;-84
2021/03/01 07:33:42;;;;;;;35.97;25.80;;;;;;;;;;5030516;28;20370;-84
2021/03/01 07:36:08;;;;;;;36.35;26.08;;;;;;;;;;5030969;28;20386;-82
2021/03/01 07:38:35;;;;;;;33.10;23.93;;;;;;;;;;5016998;28;20979;-85
2021/03/01 07:41:02;;;;;;;33.67;25.33;;;;;;;;;;5029430;28;20413;-82
2021/03/01 07:43:29;;;;;;;34.27;24.50;;;;;;;;;;5027529;28;20381;-84
2021/03/01 07:45:58;;;;;;;36.17;25.92;;;;;;;;;;5022776;28;20457;-82
2021/03/01 07:48:33;;;;;;;31.90;24.20;;;;;;;;;;5027410;28;20401;-82
2021/03/01 07:50:59;;;;;;;34.17;24.63;;;;;;;;;;5027641;28;20919;-81
2021/03/01 07:53:44;;;;;;;32.58;23.90;;;;;;;;;;5032420;28;20411;-84
2021/03/01 07:56:25;;;;;;;33.65;24.08;;;;;;;;;;5012090;28;20383;-82
2021/03/01 07:59:01;;;;;;;36.28;25.10;;;;;;;;;;5019950;28;20895;-82
2021/03/01 08:01:27;;;;;;;32.88;24.60;;;;;;;;;;5029577;28;20373;-85
2021/03/01 08:03:53;;;;;;;35.00;25.77;;;;;;;;;;5024770;28;20914;-84
2021/03/01 08:06:20;;;;;;;34.42;25.08;;;;;;;;;;5013643;28;20482;-83
2021/03/01 08:08:50;;;;;;;34.92;24.42;;;;;;;;;;5019220;28;20391;-84
2021/03/01 08:11:36;;;;;;;32.63;24.17;;;;;;;;;;5013534;28;20391;-83
2021/03/01 08:14:02;;;;;;;30.67;22.92;;;;;;;;;;5028656;28;20388;-83
2021/03/01 08:16:28;;;;;;;29.77;23.48;;;;;;;;;;5029251;28;20385;-83
2021/03/01 08:18:55;;;;;;;34.83;24.10;;;;;;;;;;5022908;28;20422;-83
2021/03/01 08:21:21;;;;;;;30.85;22.17;;;;;;;;;;5045717;28;20384;-83
2021/03/01 08:23:49;;;;;;;30.38;21.80;;;;;;;;;;5037212;28;20420;-83
2021/03/01 08:26:47;;;;;;;29.20;21.27;;;;;;;;;;5014053;28;20425;-82
2021/03/01 08:29:17;;;;;;;29.33;21.40;;;;;;;;;;4965813;28;20414;-84
2021/03/01 08:31:43;;;;;;;25.45;19.42;;;;;;;;;;5022322;28;20456;-85
2021/03/01 08:34:28;;;;;;;25.88;19.58;;;;;;;;;;5031445;28;20477;-83
2021/03/01 08:36:54;;;;;;;25.90;20.00;;;;;;;;;;5028895;28;20382;-85
2021/03/01 08:39:38;;;;;;;23.60;17.92;;;;;;;;;;5030766;28;20409;-85
2021/03/01 08:42:04;;;;;;;24.17;18.23;;;;;;;;;;5031839;28;20803;-85
2021/03/01 08:44:32;;;;;;;24.73;17.58;;;;;;;;;;5031731;28;20436;-85
2021/03/01 08:47:04;;;;;;;23.80;17.40;;;;;;;;;;5031342;28;20381;-85
2021/03/01 08:49:30;;;;;;;25.88;18.35;;;;;;;;;;5031153;28;20488;-87
2021/03/01 08:51:56;;;;;;;23.27;18.03;;;;;;;;;;5029105;28;20469;-83
2021/03/01 08:54:29;;;;;;;24.33;17.93;;;;;;;;;;5031075;28;20370;-83
2021/03/01 08:57:05;;;;;;;23.77;16.77;;;;;;;;;;5030283;28;20392;-84
2021/03/01 08:59:32;;;;;;;22.75;16.60;;;;;;;;;;5031047;28;20381;-84
2021/03/01 09:01:58;;;;;;;24.40;17.70;;;;;;;;;;5031413;28;20373;-84
2021/03/01 09:04:24;;;;;;;23.83;17.10;;;;;;;;;;5029883;28;20768;-86
2021/03/01 09:06:50;;;;;;;22.85;16.52;;;;;;;;;;5031230;28;20392;-82
2021/03/01 09:09:16;;;;;;;22.65;16.65;;;;;;;;;;5030944;28;20397;-85
2021/03/01 09:11:42;;;;;;;21.63;16.15;;;;;;;;;;5030992;28;20378;-84
2021/03/01 09:14:08;;;;;;;21.77;15.60;;;;;;;;;;5027754;28;20402;-84
2021/03/01 09:16:36;;;;;;;21.55;15.90;;;;;;;;;;5022884;28;20403;-85
2021/03/01 09:19:06;;;;;;;20.92;15.68;;;;;;;;;;5025322;28;20391;-85
2021/03/01 09:21:38;;;;;;;21.63;15.70;;;;;;;;;;5028340;28;20385;-82
2021/03/01 09:24:04;;;;;;;19.63;14.70;;;;;;;;;;5018450;28;20384;-82
2021/03/01 09:26:31;;;;;;;20.23;14.95;;;;;;;;;;5010848;28;20398;-83
2021/03/01 09:29:17;;;;;;;20.73;14.93;;;;;;;;;;5010581;28;20426;-83
2021/03/01 09:31:45;;;;;;;18.63;14.43;;;;;;;;;;5009852;28;20387;-82
2021/03/01 09:34:12;;;;;;;20.13;15.45;;;;;;;;;;5010823;28;20385;-84
2021/03/01 09:36:39;;;;;;;20.00;14.38;;;;;;;;;;5026340;28;20384;-84
2021/03/01 09:39:06;;;;;;;19.73;14.38;;;;;;;;;;5031022;28;20378;-84
2021/03/01 09:41:33;;;;;;;19.00;14.38;;;;;;;;;;5028646;28;20370;-84
2021/03/01 09:43:59;;;;;;;19.05;14.45;;;;;;;;;;5030537;28;20365;-84
2021/03/01 09:46:27;;;;;;;18.15;14.15;;;;;;;;;;5030866;28;20741;-84
2021/03/01 09:48:54;;;;;;;18.58;13.73;;;;;;;;;;5030146;28;20406;-84
2021/03/01 09:51:22;;;;;;;19.25;13.93;;;;;;;;;;5024774;28;20393;-84
2021/03/01 09:53:48;;;;;;;17.93;13.17;;;;;;;;;;5013271;28;20382;-83
2021/03/01 09:56:16;;;;;;;24.05;16.30;;;;;;;;;;5009537;28;20389;-85
2021/03/01 09:58:42;;;;;;;17.38;13.65;;;;;;;;;;5018851;28;20380;-84
2021/03/01 10:01:15;;;;;;;16.75;12.63;;;;;;;;;;5027421;28;20381;-82
2021/03/01 10:03:47;;;;;;;17.30;12.63;;;;;;;;;;5027960;28;21106;-83
2021/03/01 10:06:14;;;;;;;17.08;12.30;;;;;;;;;;5028498;28;20385;-85
2021/03/01 10:08:41;;;;;;;18.75;12.70;;;;;;;;;;5026020;28;20387;-84
2021/03/01 10:11:23;;;;;;;17.77;13.27;;;;;;;;;;5009289;28;21073;-85
2021/03/01 10:13:49;;;;;;;16.80;13.17;;;;;;;;;;5009714;28;20387;-84
2021/03/01 10:16:28;;;;;;;16.60;12.60;;;;;;;;;;5011357;28;20477;-83
2021/03/01 10:18:54;;;;;;;17.55;13.43;;;;;;;;;;5014159;28;20507;-86
2021/03/01 10:21:30;;;;;;;16.73;13.55;;;;;;;;;;5028016;28;20854;-85
2021/03/01 10:24:02;;;;;;;17.48;12.75;;;;;;;;;;5012074;28;20779;-85
2021/03/01 10:26:28;;;;;;;17.13;12.95;;;;;;;;;;5026060;28;20386;-85
2021/03/01 10:28:55;;;;;;;17.02;13.23;;;;;;;;;;5024149;28;20883;-82
2021/03/01 10:31:35;;;;;;;15.88;12.27;;;;;;;;;;5026155;28;20374;-83
2021/03/01 10:34:05;;;;;;;16.70;12.45;;;;;;;;;;5009006;28;20885;-84
2021/03/01 10:36:35;;;;;;;17.63;13.15;;;;;;;;;;5011417;28;20378;-88
2021/03/01 10:39:09;;;;;;;16.50;12.57;;;;;;;;;;5034277;28;20385;-83
2021/03/01 10:41:43;;;;;;;16.25;12.30;;;;;;;;;;5040497;28;20381;-83
2021/03/01 10:44:09;;;;;;;19.02;13.43;;;;;;;;;;5033707;28;20389;-85
2021/03/01 10:46:41;;;;;;;16.58;13.18;;;;;;;;;;5036381;28;20475;-83
2021/03/01 10:49:22;;;;;;;17.23;13.75;;;;;;;;;;5034239;28;20480;-81
2021/03/01 10:51:48;;;;;;;17.05;13.38;;;;;;;;;;5030870;28;20740;-84
2021/03/01 10:54:15;;;;;;;17.93;13.33;;;;;;;;;;5023846;28;20473;-86
2021/03/01 10:56:41;;;;;;;16.95;12.40;;;;;;;;;;5018823;28;21028;-86
2021/03/01 10:59:08;;;;;;;16.88;12.88;;;;;;;;;;5030931;28;20459;-84
2021/03/01 11:01:34;;;;;;;16.25;12.68;;;;;;;;;;5030972;28;20370;-81
2021/03/01 11:04:01;;;;;;;17.08;13.13;;;;;;;;;;5046037;28;20380;-82
2021/03/01 11:06:27;;;;;;;17.15;13.15;;;;;;;;;;5047003;28;20388;-82
2021/03/01 11:08:53;;;;;;;14.83;12.13;;;;;;;;;;5040649;28;20399;-81
2021/03/01 11:11:19;;;;;;;15.90;12.23;;;;;;;;;;5061742;28;20376;-83
2021/03/01 11:13:45;;;;;;;18.02;12.90;;;;;;;;;;5030675;28;20401;-85
2021/03/01 11:16:11;;;;;;;17.00;14.13;;;;;;;;;;5029292;28;20383;-82
2021/03/01 11:18:43;;;;;;;18.58;13.95;;;;;;;;;;5030265;28;20447;-87
2021/03/01 11:21:10;;;;;;;21.63;17.15;;;;;;;;;;5033035;28;20380;-85
2021/03/01 11:23:37;;;;;;;30.27;22.88;;;;;;;;;;5034168;28;20373;-89
2021/03/01 11:26:03;;;;;;;31.08;23.20;;;;;;;;;;5023170;28;20399;-87
2021/03/01 11:28:29;;;;;;;26.80;20.55;;;;;;;;;;5032648;28;20377;-89
2021/03/01 11:30:55;;;;;;;28.90;21.92;;;;;;;;;;5024344;28;20473;-90
2021/03/01 11:33:22;;;;;;;31.45;23.38;;;;;;;;;;5014891;28;20789;-87
2021/03/01 11:35:50;;;;;;;31.33;23.57;;;;;;;;;;5020594;28;20417;-86
2021/03/01 11:38:17;;;;;;;31.48;23.83;;;;;;;;;;5034072;28;20386;-84
2021/03/01 11:40:44;;;;;;;33.58;24.90;;;;;;;;;;5027128;28;20395;-84
2021/03/01 11:43:10;;;;;;;35.38;26.25;;;;;;;;;;5022887;28;20405;-88
2021/03/01 11:45:36;;;;;;;39.35;31.17;;;;;;;;;;5027855;28;20394;-86
2021/03/01 11:48:02;;;;;;;44.45;34.55;;;;;;;;;;5012784;28;20383;-89
2021/03/01 11:50:29;;;;;;;41.03;33.28;;;;;;;;;;5026984;28;20463;-88
2021/03/01 11:52:55;;;;;;;41.67;33.23;;;;;;;;;;5015583;28;21003;-88
2021/03/01 11:55:22;;;;;;;38.40;31.47;;;;;;;;;;5031683;28;20424;-86
2021/03/01 11:57:48;;;;;;;40.35;31.08;;;;;;;;;;5033106;28;20440;-85
2021/03/01 12:00:16;;;;;;;36.90;28.15;;;;;;;;;;5029004;28;20389;-87
2021/03/01 12:02:42;;;;;;;36.77;27.60;;;;;;;;;;5032308;28;20427;-88
2021/03/01 12:05:09;;;;;;;36.58;27.73;;;;;;;;;;5033231;28;20382;-83
2021/03/01 12:07:36;;;;;;;36.53;28.80;;;;;;;;;;5031741;28;20469;-88
2021/03/01 12:10:02;;;;;;;31.20;25.45;;;;;;;;;;5033109;28;20405;-87
2021/03/01 12:12:28;;;;;;;35.72;26.20;;;;;;;;;;5028909;28;20454;-88
2021/03/01 12:14:53;;;;;;;28.10;21.80;;;;;;;;;;5030495;28;20382;-86
2021/03/01 12:17:20;;;;;;;24.17;19.25;;;;;;;;;;5032676;28;20389;-89
2021/03/01 12:19:46;;;;;;;26.95;21.27;;;;;;;;;;5043219;28;20381;-84
2021/03/01 12:22:12;;;;;;;28.73;21.90;;;;;;;;;;5051260;28;20436;-85
2021/03/01 12:24:38;;;;;;;26.55;20.38;;;;;;;;;;5051824;28;20387;-84
2021/03/01 12:27:04;;;;;;;24.90;19.65;;;;;;;;;;5050734;28;20375;-89
2021/03/01 12:29:30;;;;;;;26.67;20.15;;;;;;;;;;5027180;28;20405;-86
2021/03/01 12:31:56;;;;;;;25.30;18.90;;;;;;;;;;5031488;28;20423;-87
2021/03/01 12:34:26;;;;;;;22.25;17.95;;;;;;;;;;5031115;28;20880;-89
2021/03/01 12:36:52;;;;;;;26.88;20.15;;;;;;;;;;5031338;28;20386;-88
2021/03/01 12:39:18;;;;;;;27.17;20.08;;;;;;;;;;5031519;28;20369;-89
2021/03/01 12:41:44;;;;;;;27.52;20.33;;;;;;;;;;5031868;28;20484;-85
2021/03/01 12:44:10;;;;;;;27.30;21.27;;;;;;;;;;5032611;28;20381;-83
2021/03/01 12:46:36;;;;;;;18.10;13.20;;;;;;;;;;5031050;28;20389;-88
2021/03/01 12:49:02;;;;;;;17.10;12.13;;;;;;;;;;5031248;28;20384;-86
2021/03/01 12:51:28;;;;;;;16.60;12.70;;;;;;;;;;5031141;28;20560;-85
2021/03/01 12:53:54;;;;;;;16.30;12.20;;;;;;;;;;5031291;28;20382;-87
2021/03/01 12:56:21;;;;;;;14.52;11.90;;;;;;;;;;5032197;28;20403;-86
2021/03/01 12:58:47;;;;;;;15.77;11.88;;;;;;;;;;5030872;28;20461;-89
2021/03/01 13:01:13;;;;;;;17.10;11.52;;;;;;;;;;5030987;28;20520;-83
2021/03/01 13:03:40;;;;;;;14.60;10.65;;;;;;;;;;5031954;28;20445;-85
2021/03/01 13:06:06;;;;;;;15.77;11.43;;;;;;;;;;5032142;28;20717;-86
2021/03/01 13:08:32;;;;;;;16.60;11.38;;;;;;;;;;5031609;28;20377;-82
2021/03/01 13:10:59;;;;;;;13.82;10.80;;;;;;;;;;5023004;28;20413;-83
2021/03/01 13:13:25;;;;;;;16.75;11.88;;;;;;;;;;5020116;28;20751;-87
2021/03/01 13:15:51;;;;;;;15.27;11.65;;;;;;;;;;5029904;28;20872;-83
2021/03/01 13:18:17;;;;;;;15.65;12.02;;;;;;;;;;5010565;28;20418;-86
2021/03/01 13:20:43;;;;;;;18.30;12.97;;;;;;;;;;5016373;28;20455;-85
2021/03/01 13:23:09;;;;;;;16.23;12.60;;;;;;;;;;5030370;28;20500;-83
2021/03/01 13:25:36;;;;;;;20.20;13.45;;;;;;;;;;5029502;28;20469;-85
2021/03/01 13:28:02;;;;;;;17.20;13.27;;;;;;;;;;5031559;28;20369;-89
2021/03/01 13:30:28;;;;;;;19.63;13.45;;;;;;;;;;5031257;28;20405;-85
2021/03/01 13:32:54;;;;;;;16.38;12.77;;;;;;;;;;5034719;28;20449;-83
2021/03/01 13:35:20;;;;;;;16.45;12.82;;;;;;;;;;5039148;28;20388;-83
2021/03/01 13:37:47;;;;;;;16.75;13.25;;;;;;;;;;5032428;28;20399;-81
2021/03/01 13:40:13;;;;;;;16.58;12.77;;;;;;;;;;5017534;28;20465;-85
2021/03/01 13:42:39;;;;;;;18.80;12.67;;;;;;;;;;5020965;28;20447;-83
2021/03/01 13:45:08;;;;;;;15.17;11.90;;;;;;;;;;5022726;28;20893;-85
2021/03/01 13:47:34;;;;;;;15.35;12.55;;;;;;;;;;5018435;28;20391;-85
2021/03/01 13:50:00;;;;;;;17.25;12.05;;;;;;;;;;5020878;28;20438;-84
2021/03/01 13:52:26;;;;;;;18.17;12.65;;;;;;;;;;5023990;28;20417;-85
2021/03/01 13:54:52;;;;;;;17.30;12.05;;;;;;;;;;5014567;28;20402;-85
2021/03/01 13:57:19;;;;;;;16.02;12.80;;;;;;;;;;5019202;28;20386;-84
2021/03/01 13:59:45;;;;;;;16.92;12.65;;;;;;;;;;5019282;28;21481;-83
2021/03/01 14:02:11;;;;;;;16.77;12.52;;;;;;;;;;5019973;28;20383;-89
2021/03/01 14:04:39;;;;;;;18.08;12.65;;;;;;;;;;5024869;28;20886;-84
2021/03/01 14:07:05;;;;;;;15.75;12.57;;;;;;;;;;5031722;28;20385;-84
2021/03/01 14:09:31;;;;;;;17.10;13.13;;;;;;;;;;5031876;28;20902;-84
2021/03/01 14:11:57;;;;;;;16.20;12.43;;;;;;;;;;5030983;28;20374;-86
2021/03/01 14:14:24;;;;;;;15.68;12.27;;;;;;;;;;5028844;28;20392;-83
2021/03/01 14:16:52;;;;;;;16.38;12.85;;;;;;;;;;5030595;28;20464;-84
2021/03/01 14:19:19;;;;;;;18.40;13.07;;;;;;;;;;5030834;28;20408;-83
2021/03/01 14:21:45;;;;;;;17.30;13.07;;;;;;;;;;5030175;28;20409;-88
2021/03/01 14:24:12;;;;;;;18.30;14.15;;;;;;;;;;5028911;28;21208;-86